Time;durP1;ratioP1;P1;durP2;ratioP2;P2;SDS_P1;SDS_P2;PMS_P1;PMS_P2;Temp;Humidity;BMP_temperature;BMP_pressure;BME280_temperature;BME280_humidity;BME280_pressure;Samples;Min_cycle;Max_cycle;Signal;HPM_P1;HPM_P2
2023/03/28 00:00:59;;;;;;;3.10;2.53;;;;;;;;;;4992601;28;20203;-80
2023/03/28 00:03:26;;;;;;;5.70;2.70;;;;;;;;;;4974943;28;20317;-80
2023/03/28 00:05:55;;;;;;;3.60;2.60;;;;;;;;;;4974478;28;20220;-80
2023/03/28 00:08:20;;;;;;;2.43;2.23;;;;;;;;;;4982196;28;20207;-79
2023/03/28 00:10:46;;;;;;;3.17;2.10;;;;;;;;;;4969125;28;20193;-79
2023/03/28 00:13:14;;;;;;;4.70;2.70;;;;;;;;;;4972150;28;20207;-79
2023/03/28 00:15:40;;;;;;;3.17;2.20;;;;;;;;;;4990729;28;20180;-79
2023/03/28 00:18:07;;;;;;;3.47;2.50;;;;;;;;;;4974370;28;20222;-79
2023/03/28 00:20:37;;;;;;;6.90;2.47;;;;;;;;;;4974175;28;20184;-79
2023/03/28 00:23:02;;;;;;;3.47;2.40;;;;;;;;;;4979912;28;20187;-79
2023/03/28 00:25:31;;;;;;;2.33;2.10;;;;;;;;;;4975544;28;20215;-79
2023/03/28 00:27:56;;;;;;;2.93;2.10;;;;;;;;;;4991741;28;20180;-79
2023/03/28 00:30:22;;;;;;;1.97;1.77;;;;;;;;;;4971812;28;20175;-80
2023/03/28 00:32:47;;;;;;;2.93;2.40;;;;;;;;;;4982731;28;20187;-79
2023/03/28 00:35:12;;;;;;;3.80;2.40;;;;;;;;;;4974402;28;20195;-79
2023/03/28 00:37:40;;;;;;;2.43;2.17;;;;;;;;;;4974132;28;20342;-79
2023/03/28 00:40:06;;;;;;;2.90;2.20;;;;;;;;;;4975307;28;20206;-79
2023/03/28 00:42:32;;;;;;;5.07;2.37;;;;;;;;;;4976014;28;20376;-79
2023/03/28 00:44:57;;;;;;;2.50;2.30;;;;;;;;;;4974198;28;20278;-80
2023/03/28 00:47:44;;;;;;;4.00;2.07;;;;;;;;;;4971975;28;20247;-79
2023/03/28 00:50:18;;;;;;;6.23;2.53;;;;;;;;;;4972699;28;20187;-79
2023/03/28 00:52:57;;;;;;;5.63;2.00;;;;;;;;;;4971058;28;20186;-79
2023/03/28 00:55:25;;;;;;;2.57;2.37;;;;;;;;;;4971394;28;20188;-79
2023/03/28 00:57:51;;;;;;;2.53;2.33;;;;;;;;;;4975964;28;20188;-79
2023/03/28 01:00:18;;;;;;;3.67;1.93;;;;;;;;;;4968128;28;20277;-79
2023/03/28 01:02:44;;;;;;;2.87;2.30;;;;;;;;;;4970457;28;20173;-79
2023/03/28 01:05:10;;;;;;;4.87;2.33;;;;;;;;;;4968468;28;20268;-79
2023/03/28 01:07:39;;;;;;;3.10;2.13;;;;;;;;;;4971809;28;20184;-79
2023/03/28 01:10:06;;;;;;;2.70;2.50;;;;;;;;;;4971173;28;20167;-79
2023/03/28 01:12:33;;;;;;;3.23;2.27;;;;;;;;;;4972403;28;20514;-79
2023/03/28 01:14:59;;;;;;;5.73;2.60;;;;;;;;;;4969387;28;20184;-79
2023/03/28 01:17:25;;;;;;;2.40;2.20;;;;;;;;;;4971921;28;20188;-79
2023/03/28 01:19:57;;;;;;;2.77;2.00;;;;;;;;;;4971609;28;20176;-79
2023/03/28 01:22:41;;;;;;;3.00;2.07;;;;;;;;;;4968858;28;20181;-79
2023/03/28 01:25:25;;;;;;;3.00;2.17;;;;;;;;;;4973104;28;20204;-79
2023/03/28 01:27:53;;;;;;;2.60;2.30;;;;;;;;;;4971874;28;20169;-79
2023/03/28 01:30:18;;;;;;;3.53;2.13;;;;;;;;;;4968608;28;20185;-79
2023/03/28 01:32:46;;;;;;;2.63;2.13;;;;;;;;;;4971469;28;20208;-79
2023/03/28 01:35:27;;;;;;;2.80;2.23;;;;;;;;;;4970647;28;20196;-79
2023/03/28 01:38:00;;;;;;;2.97;2.00;;;;;;;;;;4972929;28;20192;-79
2023/03/28 01:40:28;;;;;;;3.23;2.37;;;;;;;;;;4973555;28;20187;-79
2023/03/28 01:43:18;;;;;;;3.70;2.30;;;;;;;;;;4974657;28;20204;-79
2023/03/28 01:45:43;;;;;;;4.73;2.43;;;;;;;;;;4974817;28;20205;-79
2023/03/28 01:48:46;;;;;;;3.07;2.47;;;;;;;;;;5087065;28;20562;-79
2023/03/28 01:51:22;;;;;;;3.87;2.13;;;;;;;;;;5082176;28;20188;-79
2023/03/28 01:53:53;;;;;;;2.53;2.33;;;;;;;;;;5080738;28;20180;-79
2023/03/28 01:56:21;;;;;;;4.63;2.40;;;;;;;;;;5086695;28;20172;-79
2023/03/28 01:58:47;;;;;;;2.40;2.17;;;;;;;;;;5080304;28;20189;-79
2023/03/28 02:01:23;;;;;;;2.73;2.27;;;;;;;;;;5116680;28;20300;-79
2023/03/28 02:03:51;;;;;;;2.50;2.30;;;;;;;;;;5112540;28;20227;-79
2023/03/28 02:06:19;;;;;;;6.40;2.63;;;;;;;;;;5083992;28;20215;-79
2023/03/28 02:08:46;;;;;;;2.70;2.50;;;;;;;;;;5078681;28;20188;-79
2023/03/28 02:11:11;;;;;;;3.90;2.40;;;;;;;;;;5075843;28;20190;-79
2023/03/28 02:13:41;;;;;;;4.00;2.50;;;;;;;;;;5085732;28;20262;-79
2023/03/28 02:16:07;;;;;;;3.87;2.47;;;;;;;;;;5114692;28;20320;-79
2023/03/28 02:18:35;;;;;;;2.30;2.10;;;;;;;;;;5085976;28;20177;-79
2023/03/28 02:21:02;;;;;;;2.27;2.07;;;;;;;;;;5086265;28;20177;-79
2023/03/28 02:23:38;;;;;;;4.17;2.50;;;;;;;;;;5077988;28;20181;-79
2023/03/28 02:26:03;;;;;;;4.50;2.33;;;;;;;;;;5087304;28;20267;-79
2023/03/28 02:28:30;;;;;;;3.77;3.07;;;;;;;;;;5076357;28;20264;-79
2023/03/28 02:30:56;;;;;;;9.07;5.13;;;;;;;;;;5076529;28;20200;-79
2023/03/28 02:33:37;;;;;;;10.80;5.37;;;;;;;;;;5080116;28;20213;-79
2023/03/28 02:36:11;;;;;;;6.00;3.47;;;;;;;;;;5084343;28;20267;-79
2023/03/28 02:38:49;;;;;;;8.20;3.97;;;;;;;;;;5077275;28;20184;-78
2023/03/28 02:41:35;;;;;;;6.60;3.73;;;;;;;;;;5102023;28;20184;-78
2023/03/28 02:44:06;;;;;;;5.87;3.60;;;;;;;;;;5046655;28;20217;-78
2023/03/28 02:46:37;;;;;;;4.77;3.10;;;;;;;;;;5087169;28;20256;-78
2023/03/28 02:49:06;;;;;;;3.47;2.57;;;;;;;;;;5058640;28;20174;-78
2023/03/28 02:51:33;;;;;;;7.20;4.03;;;;;;;;;;5085307;28;20174;-78
2023/03/28 02:54:01;;;;;;;3.33;2.23;;;;;;;;;;5061728;28;20174;-78
2023/03/28 02:56:42;;;;;;;2.80;2.33;;;;;;;;;;5057578;28;20174;-78
2023/03/28 02:59:10;;;;;;;2.60;2.40;;;;;;;;;;5081178;28;20189;-78
2023/03/28 03:01:35;;;;;;;5.30;2.50;;;;;;;;;;5058647;28;20193;-78
2023/03/28 03:04:01;;;;;;;5.50;2.40;;;;;;;;;;5050258;28;20269;-77
2023/03/28 03:06:26;;;;;;;3.10;2.30;;;;;;;;;;5048074;28;20248;-77
2023/03/28 03:08:51;;;;;;;5.40;3.80;;;;;;;;;;5081538;28;20182;-78
2023/03/28 03:11:16;;;;;;;6.60;2.90;;;;;;;;;;5047108;28;20196;-78
2023/03/28 03:13:42;;;;;;;4.23;2.40;;;;;;;;;;5077852;28;20170;-77
2023/03/28 03:16:08;;;;;;;6.13;3.10;;;;;;;;;;5050606;28;20170;-77
2023/03/28 03:18:33;;;;;;;5.57;2.97;;;;;;;;;;5053181;28;20270;-78
2023/03/28 03:21:00;;;;;;;3.33;2.53;;;;;;;;;;5070355;28;20188;-78
2023/03/28 03:23:25;;;;;;;7.80;3.17;;;;;;;;;;5054678;28;20181;-77
2023/03/28 03:25:51;;;;;;;2.90;2.60;;;;;;;;;;5050237;28;20170;-78
2023/03/28 03:28:17;;;;;;;3.57;2.60;;;;;;;;;;5046060;28;20232;-78
2023/03/28 03:30:42;;;;;;;2.57;2.33;;;;;;;;;;5061392;28;20177;-78
2023/03/28 03:33:13;;;;;;;3.83;2.90;;;;;;;;;;5043561;28;20171;-78
2023/03/28 03:35:40;;;;;;;3.07;2.73;;;;;;;;;;5066848;28;20257;-78
2023/03/28 03:38:06;;;;;;;6.77;2.50;;;;;;;;;;5038438;28;20209;-78
2023/03/28 03:40:31;;;;;;;4.03;2.70;;;;;;;;;;5044292;28;20182;-78
2023/03/28 03:42:56;;;;;;;3.10;2.43;;;;;;;;;;5045570;28;20290;-78
2023/03/28 03:45:22;;;;;;;4.33;2.50;;;;;;;;;;5077330;28;20183;-78
2023/03/28 03:47:47;;;;;;;5.00;2.87;;;;;;;;;;5044988;28;20234;-78
2023/03/28 03:50:12;;;;;;;3.47;2.47;;;;;;;;;;5067060;28;20194;-78
2023/03/28 03:52:38;;;;;;;4.30;2.60;;;;;;;;;;5037352;28;20179;-79
2023/03/28 03:55:03;;;;;;;4.63;2.60;;;;;;;;;;5074957;28;20217;-78
2023/03/28 03:57:29;;;;;;;3.73;2.60;;;;;;;;;;5072053;28;20198;-78
2023/03/28 03:59:56;;;;;;;4.33;3.00;;;;;;;;;;5061216;28;20186;-79
2023/03/28 04:02:21;;;;;;;4.53;2.80;;;;;;;;;;5071492;28;20178;-79
2023/03/28 04:04:47;;;;;;;4.87;2.87;;;;;;;;;;5060296;28;20291;-79
2023/03/28 04:07:12;;;;;;;3.23;2.13;;;;;;;;;;5048480;28;20206;-78
2023/03/28 04:09:37;;;;;;;3.33;2.63;;;;;;;;;;5049159;28;20189;-79
2023/03/28 04:12:06;;;;;;;3.80;2.70;;;;;;;;;;5046118;28;20320;-78
2023/03/28 04:14:31;;;;;;;6.33;3.43;;;;;;;;;;5057562;28;20232;-79
2023/03/28 04:16:56;;;;;;;5.07;4.03;;;;;;;;;;5044060;28;20225;-78
2023/03/28 04:19:23;;;;;;;7.10;3.40;;;;;;;;;;5076146;28;20582;-79
2023/03/28 04:21:48;;;;;;;10.53;4.27;;;;;;;;;;5061849;28;20284;-79
2023/03/28 04:24:19;;;;;;;7.60;3.40;;;;;;;;;;5074674;28;20412;-79
2023/03/28 04:26:48;;;;;;;6.73;3.57;;;;;;;;;;5052974;28;20342;-79
2023/03/28 04:29:15;;;;;;;8.27;3.30;;;;;;;;;;5044446;28;20188;-79
2023/03/28 04:31:48;;;;;;;25.43;11.77;;;;;;;;;;5042275;28;20271;-79
2023/03/28 04:34:13;;;;;;;9.23;3.97;;;;;;;;;;5045749;28;20296;-79
2023/03/28 04:36:39;;;;;;;7.27;3.57;;;;;;;;;;5038487;28;20277;-79
2023/03/28 04:39:05;;;;;;;8.00;3.83;;;;;;;;;;5043261;28;20216;-79
2023/03/28 04:41:32;;;;;;;4.10;3.37;;;;;;;;;;5053759;28;20251;-80
2023/03/28 04:43:57;;;;;;;4.77;3.10;;;;;;;;;;5059739;28;20205;-80
2023/03/28 04:46:22;;;;;;;29.60;11.40;;;;;;;;;;5049245;28;20225;-80
2023/03/28 04:48:47;;;;;;;9.33;4.43;;;;;;;;;;5045709;28;20182;-80
2023/03/28 04:51:13;;;;;;;4.63;3.00;;;;;;;;;;5076018;28;20184;-80
2023/03/28 04:53:38;;;;;;;5.17;3.40;;;;;;;;;;5044306;28;20192;-81
2023/03/28 04:56:04;;;;;;;4.23;3.10;;;;;;;;;;5060105;28;20182;-81
2023/03/28 04:58:30;;;;;;;4.00;2.83;;;;;;;;;;5056037;28;20174;-80
2023/03/28 05:00:55;;;;;;;6.47;3.10;;;;;;;;;;5057580;28;20272;-81
2023/03/28 05:03:21;;;;;;;4.33;2.77;;;;;;;;;;5043534;28;20185;-81
2023/03/28 05:05:48;;;;;;;6.57;3.13;;;;;;;;;;5047216;28;20167;-81
2023/03/28 05:08:14;;;;;;;4.10;3.70;;;;;;;;;;5043811;28;20229;-81
2023/03/28 05:10:40;;;;;;;3.47;2.93;;;;;;;;;;5056877;28;20172;-81
2023/03/28 05:13:05;;;;;;;3.43;3.10;;;;;;;;;;5035408;28;20190;-81
2023/03/28 05:15:31;;;;;;;7.30;4.27;;;;;;;;;;5045855;28;20172;-80
2023/03/28 05:17:56;;;;;;;14.13;8.30;;;;;;;;;;5042379;28;20261;-80
2023/03/28 05:20:22;;;;;;;11.23;6.10;;;;;;;;;;5038324;28;20192;-77
2023/03/28 05:22:47;;;;;;;11.03;5.60;;;;;;;;;;5059776;28;20182;-77
2023/03/28 05:25:12;;;;;;;14.10;12.90;;;;;;;;;;5071855;28;20214;-77
2023/03/28 05:27:38;;;;;;;7.47;4.30;;;;;;;;;;5073325;28;20203;-77
2023/03/28 05:30:07;;;;;;;4.10;2.63;;;;;;;;;;5040479;28;20181;-77
2023/03/28 05:32:32;;;;;;;5.93;4.37;;;;;;;;;;5035917;28;20241;-77
2023/03/28 05:34:58;;;;;;;6.53;3.70;;;;;;;;;;5043738;28;20265;-77
2023/03/28 05:37:23;;;;;;;6.53;3.87;;;;;;;;;;5078200;28;20237;-77
2023/03/28 05:39:48;;;;;;;7.47;3.87;;;;;;;;;;5040160;28;20186;-77
2023/03/28 05:42:13;;;;;;;8.27;3.50;;;;;;;;;;5042468;28;20210;-78
2023/03/28 05:44:39;;;;;;;10.20;6.70;;;;;;;;;;5065413;28;20257;-77
2023/03/28 05:47:04;;;;;;;70.00;44.40;;;;;;;;;;5044956;28;20229;-77
2023/03/28 05:49:30;;;;;;;68.00;46.07;;;;;;;;;;5037824;28;20172;-77
2023/03/28 05:51:55;;;;;;;43.43;31.80;;;;;;;;;;5070096;28;20174;-77
2023/03/28 05:54:20;;;;;;;18.47;13.40;;;;;;;;;;5053885;28;20278;-77
2023/03/28 05:56:46;;;;;;;22.70;13.97;;;;;;;;;;5074569;28;20177;-77
2023/03/28 05:59:11;;;;;;;10.73;7.67;;;;;;;;;;5036734;28;20276;-77
2023/03/28 06:01:38;;;;;;;16.40;10.43;;;;;;;;;;5043828;28;20263;-77
2023/03/28 06:04:04;;;;;;;29.13;12.17;;;;;;;;;;5042977;28;20250;-77
2023/03/28 06:06:29;;;;;;;10.47;6.60;;;;;;;;;;5042802;28;20196;-77
2023/03/28 06:08:55;;;;;;;10.43;5.80;;;;;;;;;;5060475;28;20188;-77
2023/03/28 06:11:20;;;;;;;6.17;4.70;;;;;;;;;;5041229;28;20178;-77
2023/03/28 06:13:45;;;;;;;13.63;6.20;;;;;;;;;;5061912;28;20182;-77
2023/03/28 06:16:10;;;;;;;21.43;11.30;;;;;;;;;;5071078;28;20175;-77
2023/03/28 06:18:35;;;;;;;27.73;13.27;;;;;;;;;;5041953;28;20198;-77
2023/03/28 06:21:01;;;;;;;19.60;10.43;;;;;;;;;;5045057;28;20181;-77
2023/03/28 06:23:26;;;;;;;12.23;6.80;;;;;;;;;;5048922;28;20185;-77
2023/03/28 06:25:51;;;;;;;11.50;5.33;;;;;;;;;;5044578;28;20188;-77
2023/03/28 06:28:16;;;;;;;9.37;5.47;;;;;;;;;;5070861;28;20212;-77
2023/03/28 06:30:46;;;;;;;12.33;6.77;;;;;;;;;;5049625;28;20205;-77
2023/03/28 06:33:11;;;;;;;29.23;22.10;;;;;;;;;;5049958;28;20173;-77
2023/03/28 06:35:36;;;;;;;18.37;12.10;;;;;;;;;;5048758;28;20180;-77
2023/03/28 06:38:02;;;;;;;7.87;4.90;;;;;;;;;;5044237;28;20192;-77
2023/03/28 06:40:27;;;;;;;8.03;5.50;;;;;;;;;;5044065;28;20184;-77
2023/03/28 06:42:52;;;;;;;6.73;3.87;;;;;;;;;;5046630;28;20205;-78
2023/03/28 06:45:18;;;;;;;8.90;3.67;;;;;;;;;;5050042;28;20234;-78
2023/03/28 06:47:44;;;;;;;5.50;3.80;;;;;;;;;;5045924;28;20229;-78
2023/03/28 06:50:10;;;;;;;11.43;10.13;;;;;;;;;;5052103;28;20184;-78
2023/03/28 06:52:35;;;;;;;9.70;7.70;;;;;;;;;;5046706;28;20201;-77
2023/03/28 06:55:00;;;;;;;3.87;3.23;;;;;;;;;;5051445;28;20183;-77
2023/03/28 06:57:25;;;;;;;8.23;3.60;;;;;;;;;;5042334;28;20206;-77
2023/03/28 06:59:51;;;;;;;4.00;3.00;;;;;;;;;;5038525;28;20200;-76
2023/03/28 07:02:16;;;;;;;8.27;3.60;;;;;;;;;;5044234;28;20188;-75
2023/03/28 07:04:42;;;;;;;7.03;3.30;;;;;;;;;;5043624;28;20216;-75
2023/03/28 07:07:08;;;;;;;5.43;3.40;;;;;;;;;;5050582;28;20193;-75
2023/03/28 07:09:33;;;;;;;6.40;3.00;;;;;;;;;;5067893;28;20230;-75
2023/03/28 07:11:58;;;;;;;8.40;3.10;;;;;;;;;;5041524;28;20260;-75
2023/03/28 07:14:24;;;;;;;11.50;5.30;;;;;;;;;;5075884;28;20171;-75
2023/03/28 07:16:49;;;;;;;7.10;4.60;;;;;;;;;;5042941;28;20233;-75
2023/03/28 07:19:16;;;;;;;6.33;3.70;;;;;;;;;;5052957;28;20188;-75
2023/03/28 07:21:42;;;;;;;8.40;3.63;;;;;;;;;;5052521;28;20177;-75
2023/03/28 07:24:07;;;;;;;5.63;3.40;;;;;;;;;;5053210;28;20174;-75
2023/03/28 07:26:32;;;;;;;3.97;3.37;;;;;;;;;;5049138;28;20201;-75
2023/03/28 07:28:58;;;;;;;4.77;2.93;;;;;;;;;;5072808;28;20185;-75
2023/03/28 07:31:24;;;;;;;5.43;3.23;;;;;;;;;;5046343;28;20189;-74
2023/03/28 07:33:49;;;;;;;8.63;4.40;;;;;;;;;;5043686;28;20180;-75
2023/03/28 07:36:18;;;;;;;4.10;3.70;;;;;;;;;;5074724;28;20284;-75
2023/03/28 07:38:43;;;;;;;5.13;3.17;;;;;;;;;;5060907;28;20171;-75
2023/03/28 07:41:08;;;;;;;2.73;2.50;;;;;;;;;;5039489;28;20172;-75
2023/03/28 07:43:34;;;;;;;5.60;3.23;;;;;;;;;;5049991;28;20197;-74
2023/03/28 07:46:00;;;;;;;7.07;5.37;;;;;;;;;;5043355;28;20178;-75
2023/03/28 07:48:26;;;;;;;5.57;4.60;;;;;;;;;;5047163;28;20217;-75
2023/03/28 07:50:51;;;;;;;4.87;4.37;;;;;;;;;;5046297;28;20201;-75
2023/03/28 07:53:17;;;;;;;5.43;3.47;;;;;;;;;;5048306;28;20181;-74
2023/03/28 07:55:42;;;;;;;6.10;3.83;;;;;;;;;;5049229;28;20178;-74
2023/03/28 07:58:08;;;;;;;13.47;7.63;;;;;;;;;;5043444;28;20189;-74
2023/03/28 08:00:33;;;;;;;3.97;3.37;;;;;;;;;;5048840;28;20178;-74
2023/03/28 08:02:59;;;;;;;5.50;3.00;;;;;;;;;;5049305;28;20179;-75
2023/03/28 08:05:25;;;;;;;5.53;2.90;;;;;;;;;;5051210;28;20177;-74
2023/03/28 08:07:51;;;;;;;6.07;2.60;;;;;;;;;;5077716;28;20580;-74
2023/03/28 08:10:21;;;;;;;3.13;2.40;;;;;;;;;;5071689;28;20183;-74
2023/03/28 08:12:46;;;;;;;4.20;3.00;;;;;;;;;;5051049;28;20233;-75
2023/03/28 08:15:11;;;;;;;3.60;2.80;;;;;;;;;;5063979;28;20201;-75
2023/03/28 08:17:36;;;;;;;4.77;3.17;;;;;;;;;;5055826;28;20185;-74
2023/03/28 08:20:05;;;;;;;4.00;2.77;;;;;;;;;;5052970;28;20277;-74
2023/03/28 08:22:30;;;;;;;5.77;2.50;;;;;;;;;;5044118;28;20174;-74
2023/03/28 08:24:55;;;;;;;4.67;2.83;;;;;;;;;;5051802;28;20264;-74
2023/03/28 08:27:21;;;;;;;6.60;2.47;;;;;;;;;;5066415;28;20230;-74
2023/03/28 08:29:46;;;;;;;5.73;2.30;;;;;;;;;;5064590;28;20187;-74
2023/03/28 08:32:12;;;;;;;5.47;2.53;;;;;;;;;;5042206;28;20182;-73
2023/03/28 08:34:39;;;;;;;3.87;2.60;;;;;;;;;;5065156;28;20170;-74
2023/03/28 08:37:04;;;;;;;6.37;2.37;;;;;;;;;;5047243;28;20182;-74
2023/03/28 08:39:29;;;;;;;3.17;1.90;;;;;;;;;;5049614;28;20182;-73
2023/03/28 08:42:24;;;;;;;4.97;2.10;;;;;;;;;;5080496;28;20198;-74
2023/03/28 08:45:08;;;;;;;3.43;2.03;;;;;;;;;;5026483;28;20252;-73
2023/03/28 08:47:45;;;;;;;3.73;2.30;;;;;;;;;;5047389;28;20234;-74
2023/03/28 08:50:15;;;;;;;4.83;2.00;;;;;;;;;;5048208;28;20174;-73
2023/03/28 08:52:42;;;;;;;1.70;1.60;;;;;;;;;;5045550;28;20188;-73
2023/03/28 08:55:10;;;;;;;4.43;2.17;;;;;;;;;;5048454;28;20261;-74
2023/03/28 08:57:37;;;;;;;10.87;2.93;;;;;;;;;;5044406;28;20255;-73
2023/03/28 09:00:13;;;;;;;2.00;1.80;;;;;;;;;;5048558;28;20272;-73
2023/03/28 09:02:39;;;;;;;2.97;1.60;;;;;;;;;;5061647;28;20173;-73
2023/03/28 09:05:05;;;;;;;3.37;1.97;;;;;;;;;;5050442;28;20170;-73
2023/03/28 09:07:33;;;;;;;4.10;1.90;;;;;;;;;;5040028;28;20186;-74
2023/03/28 09:10:09;;;;;;;6.03;2.97;;;;;;;;;;5045686;28;20320;-73
2023/03/28 09:12:53;;;;;;;6.70;1.93;;;;;;;;;;5039816;28;20173;-73
2023/03/28 09:15:42;;;;;;;3.07;1.80;;;;;;;;;;5040242;28;20170;-74
2023/03/28 09:18:10;;;;;;;3.70;2.70;;;;;;;;;;5057435;28;20208;-73
2023/03/28 09:20:38;;;;;;;4.13;1.80;;;;;;;;;;5038977;28;20202;-74
2023/03/28 09:23:07;;;;;;;2.00;1.40;;;;;;;;;;5047036;28;20202;-74
2023/03/28 09:25:35;;;;;;;1.83;1.73;;;;;;;;;;5043675;28;20239;-73
2023/03/28 09:28:05;;;;;;;3.50;1.83;;;;;;;;;;5048197;28;20327;-74
2023/03/28 09:30:35;;;;;;;4.30;1.70;;;;;;;;;;5046140;28;20197;-73
2023/03/28 09:33:04;;;;;;;1.47;1.37;;;;;;;;;;5043690;28;20169;-74
2023/03/28 09:35:30;;;;;;;2.43;1.60;;;;;;;;;;5078688;28;20181;-74
2023/03/28 09:38:01;;;;;;;8.20;1.93;;;;;;;;;;5040639;28;20178;-73
2023/03/28 09:40:30;;;;;;;2.87;1.67;;;;;;;;;;5040631;28;20200;-74
2023/03/28 09:43:05;;;;;;;1.90;1.63;;;;;;;;;;5048436;28;20202;-74
2023/03/28 09:45:38;;;;;;;3.53;1.70;;;;;;;;;;5076647;28;20200;-74
2023/03/28 09:48:04;;;;;;;2.77;1.70;;;;;;;;;;5055910;28;20225;-74
2023/03/28 09:50:29;;;;;;;3.30;1.90;;;;;;;;;;5048104;28;20228;-74
2023/03/28 09:52:55;;;;;;;4.17;1.70;;;;;;;;;;5043611;28;20202;-75
2023/03/28 09:55:22;;;;;;;3.93;1.80;;;;;;;;;;5049067;28;20178;-74
2023/03/28 09:58:04;;;;;;;2.40;1.70;;;;;;;;;;5049870;28;20260;-75
2023/03/28 10:00:38;;;;;;;4.37;1.27;;;;;;;;;;5077284;28;20178;-75
2023/03/28 10:03:04;;;;;;;1.93;1.77;;;;;;;;;;5051061;28;20177;-75
2023/03/28 10:05:32;;;;;;;1.70;1.57;;;;;;;;;;5049554;28;20316;-75
2023/03/28 10:08:01;;;;;;;2.83;1.70;;;;;;;;;;5045998;28;20261;-75
2023/03/28 10:10:27;;;;;;;3.50;1.40;;;;;;;;;;5064619;28;20181;-75
2023/03/28 10:12:57;;;;;;;3.77;1.70;;;;;;;;;;5048752;28;20261;-75
2023/03/28 10:15:43;;;;;;;3.43;1.60;;;;;;;;;;5051477;28;20183;-75
2023/03/28 10:18:14;;;;;;;5.30;1.60;;;;;;;;;;5066999;28;20177;-75
2023/03/28 10:20:40;;;;;;;4.17;1.60;;;;;;;;;;5065110;28;20201;-75
2023/03/28 10:23:05;;;;;;;5.40;1.80;;;;;;;;;;5048108;28;20171;-75
2023/03/28 10:25:35;;;;;;;3.37;2.20;;;;;;;;;;5047472;28;20186;-75
2023/03/28 10:28:02;;;;;;;2.57;1.43;;;;;;;;;;5045516;28;20208;-75
2023/03/28 10:30:29;;;;;;;4.50;1.90;;;;;;;;;;5051340;28;20193;-75
2023/03/28 10:33:13;;;;;;;3.13;1.47;;;;;;;;;;5057886;28;20228;-75
2023/03/28 10:35:41;;;;;;;3.67;1.80;;;;;;;;;;5082624;28;20174;-75
2023/03/28 10:38:14;;;;;;;3.47;1.70;;;;;;;;;;5070417;28;20217;-75
2023/03/28 10:40:40;;;;;;;4.30;2.20;;;;;;;;;;5053920;28;20170;-75
2023/03/28 10:43:10;;;;;;;3.13;1.60;;;;;;;;;;5077009;28;20204;-75
2023/03/28 10:45:37;;;;;;;2.33;1.90;;;;;;;;;;5053400;28;20186;-75
2023/03/28 10:48:13;;;;;;;2.13;1.50;;;;;;;;;;5047741;28;20226;-75
2023/03/28 10:50:49;;;;;;;2.80;1.90;;;;;;;;;;5048236;28;20173;-75
2023/03/28 10:53:33;;;;;;;1.60;1.40;;;;;;;;;;5044692;28;20179;-75
2023/03/28 10:56:09;;;;;;;3.23;1.50;;;;;;;;;;5078433;28;20203;-75
2023/03/28 10:58:37;;;;;;;2.67;1.30;;;;;;;;;;5037317;28;20177;-75
2023/03/28 11:01:19;;;;;;;4.30;1.47;;;;;;;;;;5043781;28;20206;-75
2023/03/28 11:03:58;;;;;;;1.33;1.20;;;;;;;;;;5047762;28;20182;-75
2023/03/28 11:06:30;;;;;;;1.63;1.50;;;;;;;;;;5073557;28;20192;-75
2023/03/28 11:09:05;;;;;;;1.93;1.00;;;;;;;;;;5050660;28;20182;-75
2023/03/28 11:11:36;;;;;;;3.43;1.70;;;;;;;;;;5072967;28;20212;-75
2023/03/28 11:14:18;;;;;;;1.37;1.27;;;;;;;;;;5080855;28;20178;-75
2023/03/28 11:17:02;;;;;;;2.27;1.57;;;;;;;;;;5049068;28;20258;-75
2023/03/28 11:19:38;;;;;;;1.43;1.30;;;;;;;;;;5077069;28;20181;-75
2023/03/28 11:22:22;;;;;;;1.60;1.33;;;;;;;;;;5049472;28;20186;-75
2023/03/28 11:24:53;;;;;;;2.27;1.23;;;;;;;;;;5048952;28;20227;-75
2023/03/28 11:27:30;;;;;;;1.97;1.40;;;;;;;;;;5050094;28;20199;-75
2023/03/28 11:30:08;;;;;;;2.13;1.50;;;;;;;;;;5047453;28;20168;-75
2023/03/28 11:32:40;;;;;;;2.97;1.70;;;;;;;;;;5050086;28;20171;-75
2023/03/28 11:35:21;;;;;;;4.17;1.70;;;;;;;;;;5046118;28;20246;-75
2023/03/28 11:37:55;;;;;;;1.97;1.73;;;;;;;;;;5051926;28;20181;-75
2023/03/28 11:40:26;;;;;;;8.90;1.93;;;;;;;;;;5047043;28;20187;-75
2023/03/28 11:42:56;;;;;;;1.30;1.10;;;;;;;;;;5048704;28;20202;-75
2023/03/28 11:45:30;;;;;;;3.00;1.60;;;;;;;;;;5049941;28;20182;-75
2023/03/28 11:47:58;;;;;;;1.50;1.40;;;;;;;;;;5054631;28;20248;-75
2023/03/28 11:50:28;;;;;;;2.67;1.60;;;;;;;;;;5048897;28;20182;-75
2023/03/28 11:52:56;;;;;;;2.73;1.80;;;;;;;;;;5046648;28;20195;-75
2023/03/28 11:55:27;;;;;;;5.47;2.87;;;;;;;;;;5081411;28;20173;-75
2023/03/28 11:57:55;;;;;;;1.77;1.53;;;;;;;;;;5048832;28;20178;-75
2023/03/28 12:00:27;;;;;;;16.50;8.03;;;;;;;;;;5069865;28;20181;-75
2023/03/28 12:03:04;;;;;;;29.13;4.37;;;;;;;;;;5045288;28;20177;-75
2023/03/28 12:05:35;;;;;;;1.97;1.50;;;;;;;;;;5051507;28;20181;-75
2023/03/28 12:08:10;;;;;;;1.97;1.40;;;;;;;;;;5048625;28;20262;-75
2023/03/28 12:10:36;;;;;;;3.83;2.37;;;;;;;;;;5045303;28;20262;-75
2023/03/28 12:13:05;;;;;;;5.03;1.60;;;;;;;;;;5074388;28;20173;-75
2023/03/28 12:15:36;;;;;;;3.33;2.00;;;;;;;;;;5075793;28;20179;-75
2023/03/28 12:18:08;;;;;;;3.50;1.60;;;;;;;;;;5042255;28;20171;-75
2023/03/28 12:20:34;;;;;;;1.60;1.30;;;;;;;;;;5038397;28;20175;-76
2023/03/28 12:23:03;;;;;;;3.13;1.23;;;;;;;;;;5077788;28;20183;-76
2023/03/28 12:25:34;;;;;;;2.30;1.43;;;;;;;;;;5051859;28;20242;-76
2023/03/28 12:28:02;;;;;;;2.63;1.30;;;;;;;;;;5055464;28;20213;-76
2023/03/28 12:30:36;;;;;;;6.97;1.63;;;;;;;;;;5049437;28;20190;-76
2023/03/28 12:33:12;;;;;;;2.60;2.00;;;;;;;;;;5059059;28;20201;-75
2023/03/28 12:35:47;;;;;;;2.20;1.53;;;;;;;;;;5047806;28;20174;-76
2023/03/28 12:38:18;;;;;;;3.10;1.53;;;;;;;;;;5040714;28;20178;-76
2023/03/28 12:40:47;;;;;;;2.70;2.00;;;;;;;;;;5045242;28;20201;-76
2023/03/28 12:43:14;;;;;;;1.70;1.60;;;;;;;;;;5076275;28;20324;-76
2023/03/28 12:45:42;;;;;;;1.37;1.20;;;;;;;;;;5066867;28;20170;-76
2023/03/28 12:48:11;;;;;;;1.80;1.70;;;;;;;;;;5047521;28;20245;-76
2023/03/28 12:50:51;;;;;;;3.03;1.60;;;;;;;;;;5049525;28;20188;-76
2023/03/28 12:53:16;;;;;;;1.90;1.60;;;;;;;;;;5079890;28;20239;-76
2023/03/28 12:55:43;;;;;;;2.03;1.43;;;;;;;;;;5070138;28;20170;-76
2023/03/28 12:58:18;;;;;;;3.33;1.60;;;;;;;;;;5040616;28;20177;-76
2023/03/28 13:01:02;;;;;;;4.03;2.80;;;;;;;;;;5079362;28;20273;-76
2023/03/28 13:03:33;;;;;;;2.40;1.57;;;;;;;;;;5080190;28;20182;-76
2023/03/28 13:06:23;;;;;;;3.27;1.33;;;;;;;;;;5042383;28;20185;-76
2023/03/28 13:09:06;;;;;;;5.20;2.33;;;;;;;;;;5047817;28;20182;-76
2023/03/28 13:11:48;;;;;;;2.50;1.80;;;;;;;;;;5053080;28;20174;-76
2023/03/28 13:14:26;;;;;;;5.07;2.20;;;;;;;;;;5043753;28;20191;-76
2023/03/28 13:16:56;;;;;;;13.73;9.07;;;;;;;;;;5043763;28;20181;-74
2023/03/28 13:19:36;;;;;;;7.47;2.27;;;;;;;;;;5047670;28;20189;-73
2023/03/28 13:22:02;;;;;;;6.20;4.67;;;;;;;;;;5079811;28;20186;-73
2023/03/28 13:24:29;;;;;;;3.83;2.70;;;;;;;;;;5065367;28;20183;-74
2023/03/28 13:26:59;;;;;;;10.60;5.67;;;;;;;;;;5051714;28;20206;-74
2023/03/28 13:29:44;;;;;;;1.67;1.33;;;;;;;;;;5045450;28;20179;-74
2023/03/28 13:32:15;;;;;;;18.27;10.13;;;;;;;;;;5072886;28;20182;-75
2023/03/28 13:34:45;;;;;;;10.77;6.03;;;;;;;;;;5048989;28;20166;-75
2023/03/28 13:37:18;;;;;;;5.63;3.03;;;;;;;;;;5042834;28;20191;-75
2023/03/28 13:39:49;;;;;;;5.77;2.80;;;;;;;;;;5045177;28;20217;-75
2023/03/28 13:42:34;;;;;;;6.60;3.80;;;;;;;;;;5042247;28;20241;-75
2023/03/28 13:45:21;;;;;;;14.87;6.77;;;;;;;;;;5045432;28;20207;-75
2023/03/28 13:47:48;;;;;;;5.23;3.30;;;;;;;;;;5047838;28;20285;-75
2023/03/28 13:50:17;;;;;;;5.83;3.40;;;;;;;;;;5043037;28;20193;-75
2023/03/28 13:52:42;;;;;;;14.57;6.20;;;;;;;;;;5042974;28;20184;-75
2023/03/28 13:55:19;;;;;;;11.80;5.27;;;;;;;;;;5042782;28;20267;-75
2023/03/28 13:57:44;;;;;;;4.60;2.33;;;;;;;;;;5045998;28;20187;-76
2023/03/28 14:00:15;;;;;;;6.40;5.77;;;;;;;;;;5048307;28;20278;-75
2023/03/28 14:02:45;;;;;;;2.70;2.37;;;;;;;;;;5048960;28;20271;-75
2023/03/28 14:05:10;;;;;;;3.93;1.90;;;;;;;;;;5047695;28;20260;-75
2023/03/28 14:07:36;;;;;;;3.13;1.83;;;;;;;;;;5078457;28;20330;-76
2023/03/28 14:10:20;;;;;;;2.37;1.60;;;;;;;;;;5045105;28;20189;-75
2023/03/28 14:12:45;;;;;;;2.83;1.50;;;;;;;;;;5042775;28;20189;-75
2023/03/28 14:15:13;;;;;;;2.10;1.50;;;;;;;;;;5044090;28;20184;-76
2023/03/28 14:17:39;;;;;;;1.80;1.70;;;;;;;;;;5042610;28;20176;-76
2023/03/28 14:20:05;;;;;;;2.50;1.67;;;;;;;;;;5072021;28;20181;-75
2023/03/28 14:22:31;;;;;;;4.80;2.13;;;;;;;;;;5050366;28;20174;-75
2023/03/28 14:24:58;;;;;;;2.13;1.50;;;;;;;;;;5040471;28;20268;-76
2023/03/28 14:27:39;;;;;;;6.77;2.00;;;;;;;;;;5043983;28;20227;-75
2023/03/28 14:30:28;;;;;;;43.13;7.63;;;;;;;;;;5081161;28;20177;-76
2023/03/28 14:33:01;;;;;;;7.67;2.77;;;;;;;;;;5046067;28;20200;-76
2023/03/28 14:35:27;;;;;;;2.53;1.87;;;;;;;;;;5047340;28;20204;-76
2023/03/28 14:37:54;;;;;;;3.47;1.93;;;;;;;;;;5043863;28;20204;-76
2023/03/28 14:40:27;;;;;;;3.70;1.90;;;;;;;;;;5047452;28;20238;-76
2023/03/28 14:42:54;;;;;;;4.40;1.70;;;;;;;;;;5045302;28;20232;-76
2023/03/28 14:45:20;;;;;;;2.43;1.57;;;;;;;;;;5048355;28;20173;-75
2023/03/28 14:47:45;;;;;;;3.53;3.20;;;;;;;;;;5041694;28;20233;-76
2023/03/28 14:50:14;;;;;;;1.60;1.47;;;;;;;;;;5044601;28;20268;-76
2023/03/28 14:52:43;;;;;;;2.03;1.60;;;;;;;;;;5072017;28;20182;-76